Time;durP1;ratioP1;P1;durP2;ratioP2;P2;SDS_P1;SDS_P2;PMS_P1;PMS_P2;Temp;Humidity;BMP_temperature;BMP_pressure;BME280_temperature;BME280_humidity;BME280_pressure;Samples;Min_cycle;Max_cycle;Signal;HPM_P1;HPM_P2
2021/01/21 00:00:28;;;;;;;;;;;;;;;;;;5052400;28;19995;-37
2021/01/21 00:02:54;;;;;;;;;;;;;;;;;;5052638;28;19916;-36
2021/01/21 00:05:20;;;;;;;;;;;;;;;;;;5052634;28;19916;-35
2021/01/21 00:07:46;;;;;;;;;;;;;;;;;;5052381;28;20295;-36
2021/01/21 00:10:12;;;;;;;;;;;;;;;;;;5052068;28;20268;-35
2021/01/21 00:12:38;;;;;;;;;;;;;;;;;;5052474;28;20291;-35
2021/01/21 00:15:04;;;;;;;;;;;;;;;;;;5052658;28;20329;-36
2021/01/21 00:17:30;;;;;;;;;;;;;;;;;;5052194;28;20267;-37
2021/01/21 00:19:56;;;;;;;;;;;;;;;;;;5052076;28;19909;-35
2021/01/21 00:22:22;;;;;;;;;;;;;;;;;;5052219;28;19991;-35
2021/01/21 00:24:47;;;;;;;;;;;;;;;;;;5052122;28;19909;-35
2021/01/21 00:27:13;;;;;;;;;;;;;;;;;;5052146;28;19909;-36
2021/01/21 00:29:39;;;;;;;;;;;;;;;;;;5052027;28;19908;-36
2021/01/21 00:32:05;;;;;;;;;;;;;;;;;;5052502;28;19909;-36
2021/01/21 00:34:31;;;;;;;;;;;;;;;;;;5052232;28;20371;-36
2021/01/21 00:36:57;;;;;;;;;;;;;;;;;;5052150;28;20355;-35
2021/01/21 00:39:23;;;;;;;;;;;;;;;;;;5055303;28;19924;-35
2021/01/21 00:44:25;;;;;;;;;;;;;;;;;;4260946;26;20019;-36
2021/01/21 00:46:51;;;;;;;;;;;;;;;;;;5034855;28;19996;-38
2021/01/21 00:49:17;;;;;;;;;;;;;;;;;;5034697;28;19909;-36
2021/01/21 00:51:42;;;;;;;;;;;;;;;;;;5034887;28;19951;-36
2021/01/21 00:54:08;;;;;;;;;;;;;;;;;;5034680;28;19913;-36
2021/01/21 00:56:34;;;;;;;;;;;;;;;;;;5034597;28;19925;-36
2021/01/21 00:59:00;;;;;;;;;;;;;;;;;;5034385;28;19909;-37
2021/01/21 01:01:26;;;;;;;;;;;;;;;;;;5034624;28;20055;-36
2021/01/21 01:03:52;;;;;;;;;;;;;;;;;;5034489;28;19967;-36
2021/01/21 01:06:18;;;;;;;;;;;;;;;;;;5034460;28;19916;-36
2021/01/21 01:08:44;;;;;;;;;;;;;;;;;;5034516;28;19995;-35
2021/01/21 01:11:10;;;;;;;;;;;;;;;;;;5034564;28;19909;-36
2021/01/21 01:13:36;;;;;;;;;;;;;;;;;;5034173;28;19917;-36
2021/01/21 01:16:02;;;;;;;;;;;;;;;;;;5034402;28;19923;-35
2021/01/21 01:18:28;;;;;;;;;;;;;;;;;;5034200;28;20268;-36
2021/01/21 01:20:54;;;;;;;;;;;;;;;;;;5034228;28;20287;-36
2021/01/21 01:23:20;;;;;;;;;;;;;;;;;;5034154;28;19917;-38
2021/01/21 01:25:45;;;;;;;;;;;;;;;;;;5034174;28;19968;-35
2021/01/21 01:28:11;;;;;;;;;;;;;;;;;;5034215;28;19913;-35
2021/01/21 01:30:37;;;;;;;;;;;;;;;;;;5034312;28;19913;-35
2021/01/21 01:33:03;;;;;;;;;;;;;;;;;;5033962;28;19962;-36
2021/01/21 01:35:29;;;;;;;;;;;;;;;;;;5033756;28;19967;-36
2021/01/21 01:37:55;;;;;;;;;;;;;;;;;;5033833;28;19963;-36
2021/01/21 01:40:21;;;;;;;;;;;;;;;;;;5033830;28;19909;-36
2021/01/21 01:42:47;;;;;;;;;;;;;;;;;;5033606;28;19920;-37
2021/01/21 01:45:13;;;;;;;;;;;;;;;;;;5033785;28;19913;-35
2021/01/21 01:47:39;;;;;;;;;;;;;;;;;;5033663;28;19963;-36
2021/01/21 01:50:05;;;;;;;;;;;;;;;;;;5032458;28;19924;-37
2021/01/21 01:52:31;;;;;;;;;;;;;;;;;;5033580;28;19912;-36
2021/01/21 01:54:57;;;;;;;;;;;;;;;;;;5033461;28;19971;-35
2021/01/21 01:57:23;;;;;;;;;;;;;;;;;;5033764;28;19909;-35
2021/01/21 01:59:49;;;;;;;;;;;;;;;;;;5033321;28;20350;-36
2021/01/21 02:02:15;;;;;;;;;;;;;;;;;;5033571;28;19909;-36
2021/01/21 02:04:41;;;;;;;;;;;;;;;;;;5033550;28;19921;-36
2021/01/21 02:07:07;;;;;;;;;;;;;;;;;;5033304;28;20356;-36
2021/01/21 02:09:33;;;;;;;;;;;;;;;;;;5033220;28;20361;-36
2021/01/21 02:11:59;;;;;;;;;;;;;;;;;;5033251;28;19909;-38
2021/01/21 02:14:24;;;;;;;;;;;;;;;;;;5032986;28;19909;-36
2021/01/21 02:16:50;;;;;;;;;;;;;;;;;;5033337;28;19921;-36
2021/01/21 02:19:16;;;;;;;;;;;;;;;;;;5033423;28;19909;-36
2021/01/21 02:21:42;;;;;;;;;;;;;;;;;;5033018;28;20004;-35
2021/01/21 02:24:08;;;;;;;;;;;;;;;;;;5033138;28;19963;-38
2021/01/21 02:26:34;;;;;;;;;;;;;;;;;;5015217;28;19909;-35
2021/01/21 02:29:00;;;;;;;;;;;;;;;;;;5032914;28;19910;-35
2021/01/21 02:31:26;;;;;;;;;;;;;;;;;;5032849;28;19910;-36
2021/01/21 02:33:52;;;;;;;;;;;;;;;;;;5032703;28;19913;-37
2021/01/21 02:36:19;;;;;;;;;;;;;;;;;;5032841;28;19970;-40
2021/01/21 02:38:45;;;;;;;;;;;;;;;;;;5033005;28;19917;-36
2021/01/21 02:41:10;;;;;;;;;;;;;;;;;;5032712;28;20252;-35
2021/01/21 02:43:36;;;;;;;;;;;;;;;;;;5032301;28;19921;-35
2021/01/21 02:46:02;;;;;;;;;;;;;;;;;;5032601;28;19909;-35
2021/01/21 02:48:28;;;;;;;;;;;;;;;;;;5032795;28;19963;-35
2021/01/21 02:50:54;;;;;;;;;;;;;;;;;;5032597;28;20356;-39
2021/01/21 02:53:20;;;;;;;;;;;;;;;;;;5032623;28;20474;-37
2021/01/21 02:55:46;;;;;;;;;;;;;;;;;;5032502;28;20368;-39
2021/01/21 02:58:12;;;;;;;;;;;;;;;;;;5032404;28;19909;-38
2021/01/21 03:00:38;;;;;;;;;;;;;;;;;;5031862;28;19909;-36
2021/01/21 03:03:04;;;;;;;;;;;;;;;;;;5032809;28;19951;-36
2021/01/21 03:05:30;;;;;;;;;;;;;;;;;;5032312;28;19917;-36
2021/01/21 03:07:56;;;;;;;;;;;;;;;;;;5032281;28;19910;-36
2021/01/21 03:10:22;;;;;;;;;;;;;;;;;;5032225;28;19917;-36
2021/01/21 03:12:48;;;;;;;;;;;;;;;;;;5032566;28;20012;-35
2021/01/21 03:15:14;;;;;;;;;;;;;;;;;;5031922;28;20311;-36
2021/01/21 03:17:40;;;;;;;;;;;;;;;;;;5032161;28;20256;-36
2021/01/21 03:20:05;;;;;;;;;;;;;;;;;;5032097;28;20331;-36
2021/01/21 03:22:31;;;;;;;;;;;;;;;;;;5032103;28;20324;-37
2021/01/21 03:24:57;;;;;;;;;;;;;;;;;;5032073;28;20272;-36
2021/01/21 03:27:23;;;;;;;;;;;;;;;;;;5032004;28;20283;-35
2021/01/21 03:29:49;;;;;;;;;;;;;;;;;;5032041;28;20280;-36
2021/01/21 03:32:15;;;;;;;;;;;;;;;;;;5031982;28;19913;-35
2021/01/21 03:34:41;;;;;;;;;;;;;;;;;;5031870;28;19909;-36
2021/01/21 03:37:07;;;;;;;;;;;;;;;;;;5031979;28;20280;-36
2021/01/21 03:39:33;;;;;;;;;;;;;;;;;;5031948;28;20284;-36
2021/01/21 03:41:59;;;;;;;;;;;;;;;;;;5031828;28;20271;-36
2021/01/21 03:44:25;;;;;;;;;;;;;;;;;;5031544;28;20356;-36
2021/01/21 03:46:51;;;;;;;;;;;;;;;;;;5031980;28;20274;-37
2021/01/21 03:49:17;;;;;;;;;;;;;;;;;;5031802;28;20284;-37
2021/01/21 03:51:42;;;;;;;;;;;;;;;;;;5031876;28;20230;-36
2021/01/21 03:54:08;;;;;;;;;;;;;;;;;;5031746;28;20119;-39
2021/01/21 03:56:34;;;;;;;;;;;;;;;;;;5031721;28;20011;-36
2021/01/21 03:59:00;;;;;;;;;;;;;;;;;;5031730;28;19913;-37
2021/01/21 04:01:26;;;;;;;;;;;;;;;;;;5031589;28;19909;-36
2021/01/21 04:03:52;;;;;;;;;;;;;;;;;;5032091;28;19999;-41
2021/01/21 04:06:18;;;;;;;;;;;;;;;;;;5031693;28;19909;-36
2021/01/21 04:08:44;;;;;;;;;;;;;;;;;;5031609;28;19913;-38
2021/01/21 04:11:10;;;;;;;;;;;;;;;;;;5031848;28;19916;-36
2021/01/21 04:13:36;;;;;;;;;;;;;;;;;;5033304;28;19909;-36
2021/01/21 04:16:02;;;;;;;;;;;;;;;;;;5035364;28;19921;-36
2021/01/21 04:18:28;;;;;;;;;;;;;;;;;;5035356;28;20427;-37
2021/01/21 04:20:54;;;;;;;;;;;;;;;;;;5035469;28;20344;-37
2021/01/21 04:23:20;;;;;;;;;;;;;;;;;;5035443;28;19916;-37
2021/01/21 04:25:46;;;;;;;;;;;;;;;;;;5035512;28;21546;-36
2021/01/21 04:28:11;;;;;;;;;;;;;;;;;;5035508;28;20360;-37
2021/01/21 04:30:37;;;;;;;;;;;;;;;;;;5035028;28;20386;-40
2021/01/21 04:33:03;;;;;;;;;;;;;;;;;;5035094;28;19910;-36
2021/01/21 04:35:29;;;;;;;;;;;;;;;;;;5034891;28;19976;-38
2021/01/21 04:37:58;;;;;;;;;;;;;;;;;;5034953;28;19909;-36
2021/01/21 04:40:23;;;;;;;;;;;;;;;;;;5034982;28;19916;-36
2021/01/21 04:42:49;;;;;;;;;;;;;;;;;;5035050;28;20000;-37
2021/01/21 04:45:15;;;;;;;;;;;;;;;;;;5034850;28;19939;-37
2021/01/21 04:47:41;;;;;;;;;;;;;;;;;;5034837;28;19917;-36
2021/01/21 04:50:07;;;;;;;;;;;;;;;;;;5034740;28;19916;-36
2021/01/21 04:52:33;;;;;;;;;;;;;;;;;;5034737;28;19909;-36
2021/01/21 04:54:59;;;;;;;;;;;;;;;;;;5034553;28;19921;-37
2021/01/21 04:57:25;;;;;;;;;;;;;;;;;;5034766;28;19913;-36
2021/01/21 04:59:51;;;;;;;;;;;;;;;;;;5034821;28;19947;-38
2021/01/21 05:02:17;;;;;;;;;;;;;;;;;;5034739;28;19913;-36
2021/01/21 05:04:43;;;;;;;;;;;;;;;;;;5034435;28;19936;-38
2021/01/21 05:07:09;;;;;;;;;;;;;;;;;;5034629;28;19992;-39
2021/01/21 05:09:35;;;;;;;;;;;;;;;;;;5034624;28;19910;-37
2021/01/21 05:12:01;;;;;;;;;;;;;;;;;;5034587;28;19910;-38
2021/01/21 05:14:26;;;;;;;;;;;;;;;;;;5034402;28;20381;-37
2021/01/21 05:16:52;;;;;;;;;;;;;;;;;;5034294;28;20303;-37
2021/01/21 05:19:18;;;;;;;;;;;;;;;;;;5034286;28;20295;-36
2021/01/21 05:21:44;;;;;;;;;;;;;;;;;;5034279;28;20334;-37
2021/01/21 05:24:10;;;;;;;;;;;;;;;;;;5033818;28;19917;-37
2021/01/21 05:26:36;;;;;;;;;;;;;;;;;;5034065;28;19996;-37
2021/01/21 05:29:02;;;;;;;;;;;;;;;;;;5034250;28;19910;-39
2021/01/21 05:31:28;;;;;;;;;;;;;;;;;;5033849;28;20356;-38
2021/01/21 05:33:54;;;;;;;;;;;;;;;;;;5034069;28;20430;-36
2021/01/21 05:36:20;;;;;;;;;;;;;;;;;;5033808;28;20000;-37
2021/01/21 05:38:46;;;;;;;;;;;;;;;;;;5034075;28;19909;-37
2021/01/21 05:41:12;;;;;;;;;;;;;;;;;;5033956;28;19909;-37
2021/01/21 05:43:38;;;;;;;;;;;;;;;;;;5033553;28;19950;-36
2021/01/21 05:46:04;;;;;;;;;;;;;;;;;;5033860;28;19952;-37
2021/01/21 05:48:30;;;;;;;;;;;;;;;;;;5033695;28;19909;-37
2021/01/21 05:50:55;;;;;;;;;;;;;;;;;;5033771;28;19920;-37
2021/01/21 05:53:21;;;;;;;;;;;;;;;;;;5033533;28;19909;-37
2021/01/21 05:55:48;;;;;;;;;;;;;;;;;;5033461;28;19924;-37
2021/01/21 05:58:13;;;;;;;;;;;;;;;;;;5033981;28;20004;-36
2021/01/21 06:00:39;;;;;;;;;;;;;;;;;;5033299;28;19913;-36
2021/01/21 06:03:05;;;;;;;;;;;;;;;;;;5033420;28;19913;-37
2021/01/21 06:05:31;;;;;;;;;;;;;;;;;;5033345;28;19909;-37
2021/01/21 06:07:57;;;;;;;;;;;;;;;;;;5033492;28;19932;-37
2021/01/21 06:10:23;;;;;;;;;;;;;;;;;;5033248;28;20273;-36
2021/01/21 06:12:49;;;;;;;;;;;;;;;;;;5033183;28;20346;-37
2021/01/21 06:15:15;;;;;;;;;;;;;;;;;;5033299;28;19917;-37
2021/01/21 06:17:41;;;;;;;;;;;;;;;;;;5033171;28;19963;-37
2021/01/21 06:20:08;;;;;;;;;;;;;;;;;;5032215;28;20226;-37
2021/01/21 06:22:34;;;;;;;;;;;;;;;;;;5033012;28;19944;-37
2021/01/21 06:25:00;;;;;;;;;;;;;;;;;;5032928;28;19963;-37
2021/01/21 06:27:26;;;;;;;;;;;;;;;;;;5032981;28;19959;-36
2021/01/21 06:29:52;;;;;;;;;;;;;;;;;;5032896;28;19917;-37
2021/01/21 06:32:18;;;;;;;;;;;;;;;;;;5032889;28;20062;-37
2021/01/21 06:34:44;;;;;;;;;;;;;;;;;;5032978;28;20007;-36
2021/01/21 06:37:10;;;;;;;;;;;;;;;;;;5032061;28;19909;-38
2021/01/21 06:39:36;;;;;;;;;;;;;;;;;;5032660;28;19963;-36
2021/01/21 06:42:02;;;;;;;;;;;;;;;;;;5032637;28;19936;-37
2021/01/21 06:44:28;;;;;;;;;;;;;;;;;;5032481;28;20372;-36
2021/01/21 06:46:54;;;;;;;;;;;;;;;;;;5032306;28;19916;-36
2021/01/21 06:49:20;;;;;;;;;;;;;;;;;;5032709;28;19916;-37
2021/01/21 06:51:46;;;;;;;;;;;;;;;;;;5032460;28;20272;-37
2021/01/21 06:54:12;;;;;;;;;;;;;;;;;;5032465;28;20276;-42
2021/01/21 06:56:38;;;;;;;;;;;;;;;;;;5032299;28;20083;-36
2021/01/21 06:59:04;;;;;;;;;;;;;;;;;;5031799;28;19909;-37
2021/01/21 07:01:30;;;;;;;;;;;;;;;;;;5033148;28;19909;-37
2021/01/21 07:03:56;;;;;;;;;;;;;;;;;;5032357;28;19909;-36
2021/01/21 07:06:22;;;;;;;;;;;;;;;;;;5032728;28;19919;-37
2021/01/21 07:08:47;;;;;;;;;;;;;;;;;;5032852;28;20344;-37
2021/01/21 07:11:13;;;;;;;;;;;;;;;;;;5031106;28;19909;-36
2021/01/21 07:13:39;;;;;;;;;;;;;;;;;;5032690;28;19909;-36
2021/01/21 07:16:05;;;;;;;;;;;;;;;;;;5027900;28;19925;-37
2021/01/21 07:18:32;;;;;;;;;;;;;;;;;;5031260;28;19913;-36
2021/01/21 07:20:58;;;;;;;;;;;;;;;;;;5031653;28;19963;-37
2021/01/21 07:23:24;;;;;;;;;;;;;;;;;;5031225;28;19917;-38
2021/01/21 07:25:50;;;;;;;;;;;;;;;;;;5031841;28;19913;-37
2021/01/21 07:28:15;;;;;;;;;;;;;;;;;;5028445;28;19996;-39
2021/01/21 07:30:41;;;;;;;;;;;;;;;;;;5012157;28;20019;-37
2021/01/21 07:33:07;;;;;;;;;;;;;;;;;;5029843;28;19917;-36
2021/01/21 07:35:33;;;;;;;;;;;;;;;;;;5030994;28;19960;-36
2021/01/21 07:37:59;;;;;;;;;;;;;;;;;;5031149;28;19924;-37
2021/01/21 07:40:25;;;;;;;;;;;;;;;;;;5030674;28;19967;-36
2021/01/21 07:42:51;;;;;;;;;;;;;;;;;;5030494;28;19932;-39
2021/01/21 07:45:17;;;;;;;;;;;;;;;;;;5030719;28;19975;-37
2021/01/21 07:47:46;;;;;;;;;;;;;;;;;;5032859;28;19909;-37
2021/01/21 07:50:13;;;;;;;;;;;;;;;;;;5035115;28;19916;-37
2021/01/21 07:52:39;;;;;;;;;;;;;;;;;;5034480;28;20382;-36
2021/01/21 07:55:04;;;;;;;;;;;;;;;;;;5035306;28;20257;-37
2021/01/21 07:57:30;;;;;;;;;;;;;;;;;;5035457;28;19917;-37
2021/01/21 07:59:57;;;;;;;;;;;;;;;;;;5034884;28;19921;-37
2021/01/21 08:02:23;;;;;;;;;;;;;;;;;;5035628;28;20272;-38
2021/01/21 08:04:49;;;;;;;;;;;;;;;;;;5035092;28;19909;-37
2021/01/21 08:07:14;;;;;;;;;;;;;;;;;;5035378;28;19963;-37
2021/01/21 08:09:40;;;;;;;;;;;;;;;;;;5035004;28;20355;-38
2021/01/21 08:12:06;;;;;;;;;;;;;;;;;;5035042;28;19913;-37
2021/01/21 08:14:32;;;;;;;;;;;;;;;;;;5035286;28;20423;-37
2021/01/21 08:16:58;;;;;;;;;;;;;;;;;;5035257;28;20348;-36
2021/01/21 08:19:24;;;;;;;;;;;;;;;;;;5035225;28;20359;-36
2021/01/21 08:21:50;;;;;;;;;;;;;;;;;;5035609;28;20362;-38
2021/01/21 08:24:16;;;;;;;;;;;;;;;;;;5035236;28;20229;-38
2021/01/21 08:26:43;;;;;;;;;;;;;;;;;;5035443;28;20367;-40
2021/01/21 08:29:09;;;;;;;;;;;;;;;;;;5035178;28;19975;-37
2021/01/21 08:31:35;;;;;;;;;;;;;;;;;;5034913;28;19913;-39
2021/01/21 08:34:00;;;;;;;;;;;;;;;;;;5035224;28;20348;-37
2021/01/21 08:36:26;;;;;;;;;;;;;;;;;;5035059;28;20348;-38
2021/01/21 08:38:52;;;;;;;;;;;;;;;;;;5035312;28;20487;-36
2021/01/21 08:41:21;;;;;;;;;;;;;;;;;;5035035;28;20371;-36
2021/01/21 08:43:47;;;;;;;;;;;;;;;;;;5034664;28;19921;-42
2021/01/21 08:46:13;;;;;;;;;;;;;;;;;;5034873;28;19909;-36
2021/01/21 08:48:39;;;;;;;;;;;;;;;;;;5034147;28;19913;-37
2021/01/21 08:51:05;;;;;;;;;;;;;;;;;;5034508;28;20004;-36
2021/01/21 08:53:31;;;;;;;;;;;;;;;;;;5034653;28;19909;-37
2021/01/21 08:55:57;;;;;;;;;;;;;;;;;;5032225;28;19917;-37
2021/01/21 08:58:23;;;;;;;;;;;;;;;;;;5034727;28;19913;-37
2021/01/21 09:00:49;;;;;;;;;;;;;;;;;;5034871;28;19952;-37
2021/01/21 09:03:15;;;;;;;;;;;;;;;;;;5035178;28;19913;-39
2021/01/21 09:05:40;;;;;;;;;;;;;;;;;;5035190;28;20295;-36
2021/01/21 09:08:06;;;;;;;;;;;;;;;;;;5034992;28;19909;-37
2021/01/21 09:10:32;;;;;;;;;;;;;;;;;;5034837;28;20299;-37
2021/01/21 09:12:58;;;;;;;;;;;;;;;;;;5034880;28;19909;-37
2021/01/21 09:15:24;;;;;;;;;;;;;;;;;;5034630;28;19924;-38
2021/01/21 09:17:50;;;;;;;;;;;;;;;;;;5030906;28;19909;-37
2021/01/21 09:20:16;;;;;;;;;;;;;;;;;;5030441;28;19994;-37
2021/01/21 09:22:42;;;;;;;;;;;;;;;;;;5033184;28;19913;-38
2021/01/21 09:25:08;;;;;;;;;;;;;;;;;;5034144;28;19909;-38
2021/01/21 09:27:34;;;;;;;;;;;;;;;;;;5034062;28;19909;-38
2021/01/21 09:30:00;;;;;;;;;;;;;;;;;;5033725;28;19909;-38
2021/01/21 09:32:26;;;;;;;;;;;;;;;;;;5032314;28;19967;-39
2021/01/21 09:34:52;;;;;;;;;;;;;;;;;;5033131;28;19917;-39
2021/01/21 09:37:18;;;;;;;;;;;;;;;;;;5033870;28;19963;-39
2021/01/21 09:39:44;;;;;;;;;;;;;;;;;;5034009;28;20347;-38
2021/01/21 09:42:10;;;;;;;;;;;;;;;;;;5033458;28;20268;-38
2021/01/21 09:44:36;;;;;;;;;;;;;;;;;;5033379;28;20276;-38
2021/01/21 09:47:02;;;;;;;;;;;;;;;;;;5034476;28;19909;-39
2021/01/21 09:49:27;;;;;;;;;;;;;;;;;;5033998;28;19916;-38
2021/01/21 09:51:53;;;;;;;;;;;;;;;;;;5034109;28;19909;-38
2021/01/21 09:54:19;;;;;;;;;;;;;;;;;;5034040;28;19913;-39
2021/01/21 09:56:46;;;;;;;;;;;;;;;;;;5033194;28;20020;-39
2021/01/21 09:59:12;;;;;;;;;;;;;;;;;;5034701;28;20265;-38
2021/01/21 10:01:38;;;;;;;;;;;;;;;;;;5034339;28;19909;-38
2021/01/21 10:04:04;;;;;;;;;;;;;;;;;;5033719;28;19909;-39
2021/01/21 10:06:30;;;;;;;;;;;;;;;;;;5032639;28;19948;-38
2021/01/21 10:08:55;;;;;;;;;;;;;;;;;;5033674;28;19983;-39
2021/01/21 10:11:21;;;;;;;;;;;;;;;;;;5032805;28;20008;-39
2021/01/21 10:13:47;;;;;;;;;;;;;;;;;;5030945;28;19921;-39
2021/01/21 10:16:13;;;;;;;;;;;;;;;;;;5032986;28;19924;-39
2021/01/21 10:18:39;;;;;;;;;;;;;;;;;;5032407;28;19921;-39
2021/01/21 10:21:05;;;;;;;;;;;;;;;;;;5032979;28;19916;-40
2021/01/21 10:23:32;;;;;;;;;;;;;;;;;;5033594;28;19924;-39
2021/01/21 10:25:58;;;;;;;;;;;;;;;;;;5033514;28;20406;-39
2021/01/21 10:28:24;;;;;;;;;;;;;;;;;;5033375;28;19914;-41
2021/01/21 10:30:50;;;;;;;;;;;;;;;;;;5033414;28;19913;-39
2021/01/21 10:33:23;;;;;;;;;;;;;;;;;;5115804;27;1620891;-39
2021/01/21 10:35:49;;;;;;;;;;;;;;;;;;5172715;27;20269;-38
2021/01/21 10:38:15;;;;;;;;;;;;;;;;;;5172779;27;20007;-39
2021/01/21 10:40:41;;;;;;;;;;;;;;;;;;5172404;27;19914;-39
2021/01/21 10:43:07;;;;;;;;;;;;;;;;;;5172488;27;20478;-39
2021/01/21 10:45:33;;;;;;;;;;;;;;;;;;5153723;27;20444;-39
2021/01/21 10:47:59;;;;;;;;;;;;;;;;;;5172638;27;19942;-40
2021/01/21 10:50:25;;;;;;;;;;;;;;;;;;5172332;27;19907;-39
2021/01/21 10:52:51;;;;;;;;;;;;;;;;;;5172473;27;19915;-39
2021/01/21 10:55:17;;;;;;;;;;;;;;;;;;5172555;27;20040;-39
2021/01/21 10:57:42;;;;;;;;;;;;;;;;;;5172533;27;19907;-39
2021/01/21 11:00:08;;;;;;;;;;;;;;;;;;5172483;27;20357;-40
2021/01/21 11:02:34;;;;;;;;;;;;;;;;;;5172434;27;20418;-40
2021/01/21 11:05:00;;;;;;;;;;;;;;;;;;5171855;27;20338;-39
2021/01/21 11:07:26;;;;;;;;;;;;;;;;;;5172270;27;19911;-41
2021/01/21 11:09:52;;;;;;;;;;;;;;;;;;5171949;27;19907;-41
2021/01/21 11:12:18;;;;;;;;;;;;;;;;;;5171804;27;19965;-39
2021/01/21 11:14:46;;;;;;;;;;;;;;;;;;5171755;27;19949;-39
2021/01/21 11:17:12;;;;;;;;;;;;;;;;;;5171818;27;19911;-40
2021/01/21 11:19:38;;;;;;;;;;;;;;;;;;5171793;27;19914;-40
2021/01/21 11:22:04;;;;;;;;;;;;;;;;;;5171465;27;20321;-40
2021/01/21 11:24:30;;;;;;;;;;;;;;;;;;5171606;27;19959;-40
2021/01/21 11:26:56;;;;;;;;;;;;;;;;;;5171909;27;20002;-40
2021/01/21 11:29:24;;;;;;;;;;;;;;;;;;5171552;27;19977;-40
2021/01/21 11:31:52;;;;;;;;;;;;;;;;;;5171257;27;19926;-40
2021/01/21 11:34:18;;;;;;;;;;;;;;;;;;5171292;27;19907;-40
2021/01/21 11:36:44;;;;;;;;;;;;;;;;;;5171407;27;19907;-40
2021/01/21 11:39:10;;;;;;;;;;;;;;;;;;5171679;27;19907;-40
2021/01/21 11:41:36;;;;;;;;;;;;;;;;;;5171729;27;20342;-40
2021/01/21 11:44:02;;;;;;;;;;;;;;;;;;5161412;27;19907;-39
2021/01/21 11:46:28;;;;;;;;;;;;;;;;;;5157636;27;19915;-39
2021/01/21 11:48:54;;;;;;;;;;;;;;;;;;5157578;27;19943;-39
2021/01/21 11:51:20;;;;;;;;;;;;;;;;;;5157358;27;19967;-38
2021/01/21 11:53:46;;;;;;;;;;;;;;;;;;5157206;27;19911;-38
2021/01/21 11:56:12;;;;;;;;;;;;;;;;;;5157163;27;19914;-39
2021/01/21 11:58:38;;;;;;;;;;;;;;;;;;5157338;27;19911;-39
2021/01/21 12:01:04;;;;;;;;;;;;;;;;;;5157057;27;20001;-40
2021/01/21 12:03:30;;;;;;;;;;;;;;;;;;5157096;27;19907;-39
2021/01/21 12:05:56;;;;;;;;;;;;;;;;;;5156863;27;19958;-39
2021/01/21 12:08:21;;;;;;;;;;;;;;;;;;5157000;27;19959;-40
2021/01/21 12:10:50;;;;;;;;;;;;;;;;;;5157002;27;19915;-40
2021/01/21 12:13:17;;;;;;;;;;;;;;;;;;5157111;27;20265;-41
2021/01/21 12:15:43;;;;;;;;;;;;;;;;;;5156828;27;19913;-40
2021/01/21 12:18:09;;;;;;;;;;;;;;;;;;5156931;27;19907;-41
2021/01/21 12:20:35;;;;;;;;;;;;;;;;;;5156613;27;19907;-41
2021/01/21 12:23:01;;;;;;;;;;;;;;;;;;5156806;27;19984;-41
2021/01/21 12:25:27;;;;;;;;;;;;;;;;;;5156647;27;19907;-40
2021/01/21 12:27:52;;;;;;;;;;;;;;;;;;5156604;27;19911;-38
2021/01/21 12:30:18;;;;;;;;;;;;;;;;;;5156769;27;19907;-40
2021/01/21 12:32:44;;;;;;;;;;;;;;;;;;5156333;27;20313;-41
2021/01/21 12:35:10;;;;;;;;;;;;;;;;;;5156411;27;19994;-41
2021/01/21 12:37:36;;;;;;;;;;;;;;;;;;5156516;27;19914;-38
2021/01/21 12:40:02;;;;;;;;;;;;;;;;;;5156345;27;19914;-40
2021/01/21 12:42:28;;;;;;;;;;;;;;;;;;5156466;27;19911;-40
2021/01/21 12:44:54;;;;;;;;;;;;;;;;;;5156288;27;19911;-39
2021/01/21 12:47:20;;;;;;;;;;;;;;;;;;5156236;27;19907;-38
2021/01/21 12:49:46;;;;;;;;;;;;;;;;;;5155924;27;19990;-39
2021/01/21 12:52:12;;;;;;;;;;;;;;;;;;5156031;27;19971;-40
2021/01/21 12:54:38;;;;;;;;;;;;;;;;;;5155476;27;19907;-39
2021/01/21 12:57:04;;;;;;;;;;;;;;;;;;5156117;27;20001;-39
2021/01/21 12:59:30;;;;;;;;;;;;;;;;;;5146645;27;19918;-39
2021/01/21 13:01:56;;;;;;;;;;;;;;;;;;5144296;27;19965;-40
2021/01/21 13:04:22;;;;;;;;;;;;;;;;;;5135133;27;19915;-41
2021/01/21 13:06:48;;;;;;;;;;;;;;;;;;5134913;27;20002;-39
2021/01/21 13:09:14;;;;;;;;;;;;;;;;;;5134894;27;19908;-40
2021/01/21 13:11:39;;;;;;;;;;;;;;;;;;5135123;27;20035;-40
2021/01/21 13:14:05;;;;;;;;;;;;;;;;;;5134893;27;19914;-38
2021/01/21 13:16:31;;;;;;;;;;;;;;;;;;5139844;27;19958;-39
2021/01/21 13:18:57;;;;;;;;;;;;;;;;;;5134883;27;19912;-39
2021/01/21 13:21:23;;;;;;;;;;;;;;;;;;5148751;27;19913;-39
2021/01/21 13:23:49;;;;;;;;;;;;;;;;;;5155833;27;19961;-39
2021/01/21 13:26:15;;;;;;;;;;;;;;;;;;5155536;27;19911;-37
2021/01/21 13:28:41;;;;;;;;;;;;;;;;;;5155567;27;19907;-38
2021/01/21 13:31:07;;;;;;;;;;;;;;;;;;5155381;27;19913;-38
2021/01/21 13:33:33;;;;;;;;;;;;;;;;;;5155072;27;20009;-39
2021/01/21 13:35:59;;;;;;;;;;;;;;;;;;5155409;27;19914;-39
2021/01/21 13:38:29;;;;;;;;;;;;;;;;;;5155144;27;19908;-38
2021/01/21 13:40:54;;;;;;;;;;;;;;;;;;5155143;27;19907;-40
2021/01/21 13:43:20;;;;;;;;;;;;;;;;;;5155150;27;20003;-39
2021/01/21 13:45:46;;;;;;;;;;;;;;;;;;5155081;27;19932;-38
2021/01/21 13:48:12;;;;;;;;;;;;;;;;;;5152087;27;19919;-39
2021/01/21 13:50:38;;;;;;;;;;;;;;;;;;5134151;27;20006;-38
2021/01/21 13:53:04;;;;;;;;;;;;;;;;;;5134412;27;19916;-37
2021/01/21 13:55:30;;;;;;;;;;;;;;;;;;5134413;27;20302;-38
2021/01/21 13:57:56;;;;;;;;;;;;;;;;;;5134098;27;20258;-38
2021/01/21 14:00:22;;;;;;;;;;;;;;;;;;5134123;27;19908;-38
2021/01/21 14:02:48;;;;;;;;;;;;;;;;;;5134119;27;19908;-39
2021/01/21 14:05:14;;;;;;;;;;;;;;;;;;5134186;27;19949;-37
2021/01/21 14:07:40;;;;;;;;;;;;;;;;;;5133834;27;19911;-38
2021/01/21 14:10:06;;;;;;;;;;;;;;;;;;5133869;27;19946;-38
2021/01/21 14:12:32;;;;;;;;;;;;;;;;;;5134156;27;19922;-38
2021/01/21 14:14:58;;;;;;;;;;;;;;;;;;5134232;27;19982;-37
2021/01/21 14:17:23;;;;;;;;;;;;;;;;;;5133959;27;19930;-39
2021/01/21 14:19:49;;;;;;;;;;;;;;;;;;5133885;27;19972;-38
2021/01/21 14:22:15;;;;;;;;;;;;;;;;;;5133783;27;19908;-37
2021/01/21 14:24:41;;;;;;;;;;;;;;;;;;5134106;27;19954;-38
2021/01/21 14:27:07;;;;;;;;;;;;;;;;;;5147472;27;19907;-38
2021/01/21 14:29:33;;;;;;;;;;;;;;;;;;5148481;27;19911;-38
2021/01/21 14:31:59;;;;;;;;;;;;;;;;;;5138157;27;19920;-38
2021/01/21 14:34:25;;;;;;;;;;;;;;;;;;5133637;28;19907;-37
2021/01/21 14:36:51;;;;;;;;;;;;;;;;;;5133713;28;19908;-39
2021/01/21 14:39:17;;;;;;;;;;;;;;;;;;5133657;28;19915;-37
2021/01/21 14:41:43;;;;;;;;;;;;;;;;;;5133739;28;19907;-38
2021/01/21 14:44:09;;;;;;;;;;;;;;;;;;5133511;28;19914;-38
2021/01/21 14:46:35;;;;;;;;;;;;;;;;;;5133397;28;19960;-37
2021/01/21 14:49:01;;;;;;;;;;;;;;;;;;5133327;28;19991;-37
2021/01/21 14:51:27;;;;;;;;;;;;;;;;;;5133250;28;20014;-37
2021/01/21 14:53:53;;;;;;;;;;;;;;;;;;5133732;28;19907;-39
2021/01/21 14:56:19;;;;;;;;;;;;;;;;;;5133418;28;19915;-38
2021/01/21 14:58:45;;;;;;;;;;;;;;;;;;5134652;28;19908;-37
2021/01/21 15:01:11;;;;;;;;;;;;;;;;;;5134689;28;19960;-37
2021/01/21 15:03:36;;;;;;;;;;;;;;;;;;5133589;28;20011;-38
2021/01/21 15:06:02;;;;;;;;;;;;;;;;;;5133119;28;19930;-37
2021/01/21 15:08:28;;;;;;;;;;;;;;;;;;5133315;28;19908;-38
2021/01/21 15:11:00;;;;;;;;;;;;;;;;;;5133267;28;19907;-38
2021/01/21 15:13:25;;;;;;;;;;;;;;;;;;5133141;28;19946;-37
2021/01/21 15:15:51;;;;;;;;;;;;;;;;;;5133301;28;19950;-37
2021/01/21 15:18:17;;;;;;;;;;;;;;;;;;5134107;27;19908;-38
2021/01/21 15:20:43;;;;;;;;;;;;;;;;;;5137247;27;20002;-38
2021/01/21 15:23:09;;;;;;;;;;;;;;;;;;5136836;27;19908;-37
2021/01/21 15:25:35;;;;;;;;;;;;;;;;;;5137039;27;19960;-37
2021/01/21 15:28:01;;;;;;;;;;;;;;;;;;5137011;27;19960;-38
2021/01/21 15:30:27;;;;;;;;;;;;;;;;;;5136852;27;19908;-36
2021/01/21 15:32:53;;;;;;;;;;;;;;;;;;5136634;27;19926;-37
2021/01/21 15:35:19;;;;;;;;;;;;;;;;;;5136884;27;19908;-37
2021/01/21 15:37:45;;;;;;;;;;;;;;;;;;5136874;27;19911;-38
2021/01/21 15:40:11;;;;;;;;;;;;;;;;;;5136778;27;19964;-38
2021/01/21 15:42:37;;;;;;;;;;;;;;;;;;5136795;27;19921;-37
2021/01/21 15:45:03;;;;;;;;;;;;;;;;;;5136737;27;19911;-38
2021/01/21 15:47:28;;;;;;;;;;;;;;;;;;5136741;27;19911;-37
2021/01/21 15:49:54;;;;;;;;;;;;;;;;;;5136540;27;19914;-38
2021/01/21 15:52:20;;;;;;;;;;;;;;;;;;5136688;27;20002;-37
2021/01/21 15:54:46;;;;;;;;;;;;;;;;;;5136782;27;20282;-37
2021/01/21 15:57:13;;;;;;;;;;;;;;;;;;5136886;27;19911;-37
2021/01/21 15:59:39;;;;;;;;;;;;;;;;;;5136613;27;19973;-37
2021/01/21 16:02:05;;;;;;;;;;;;;;;;;;5136412;27;20374;-37
2021/01/21 16:04:30;;;;;;;;;;;;;;;;;;5136373;27;19907;-37
2021/01/21 16:06:56;;;;;;;;;;;;;;;;;;5136186;27;19911;-36
2021/01/21 16:09:22;;;;;;;;;;;;;;;;;;5136235;27;19914;-37
2021/01/21 16:11:48;;;;;;;;;;;;;;;;;;5136294;27;19965;-37
2021/01/21 16:14:14;;;;;;;;;;;;;;;;;;5136164;27;19914;-37
2021/01/21 16:16:40;;;;;;;;;;;;;;;;;;5136438;27;19908;-37
2021/01/21 16:19:06;;;;;;;;;;;;;;;;;;5136280;27;19907;-37
2021/01/21 16:21:32;;;;;;;;;;;;;;;;;;5135961;27;19908;-37
2021/01/21 16:23:58;;;;;;;;;;;;;;;;;;5136150;27;19908;-37
2021/01/21 16:26:24;;;;;;;;;;;;;;;;;;5135975;27;19908;-37
2021/01/21 16:28:50;;;;;;;;;;;;;;;;;;5136108;27;20004;-37
2021/01/21 16:31:16;;;;;;;;;;;;;;;;;;5135828;27;20368;-38
2021/01/21 16:33:42;;;;;;;;;;;;;;;;;;5136053;27;20331;-38
2021/01/21 16:36:08;;;;;;;;;;;;;;;;;;5136027;27;20339;-36
2021/01/21 16:38:34;;;;;;;;;;;;;;;;;;5135600;27;20237;-37